This is the latest recevied weather packets stored in our database for station/object CE3TPB-1. If no packets are shown the sender has not sent any weather packets the latest 10 day(s).
| Time | Temp. | Humidity | Pressure | Rain* | Wind** | Luminosity | Snow |
|---|---|---|---|---|---|---|---|
| 1777805143 | 20° C | 33% | 1023.1 hPa | - | - | - | - |
| 1777804542 | 20° C | 33% | 1022.3 hPa | - | - | - | - |
| 1777803942 | 20° C | 33% | 1019.4 hPa | - | - | - | - |
| 1777803341 | 20° C | 32% | 1020.4 hPa | - | - | - | - |
| 1777802741 | 20° C | 33% | 1023 hPa | - | - | - | - |
| 1777802141 | 20° C | 33% | 1019.9 hPa | - | - | - | - |
| 1777800340 | 19.44° C | 32% | 1021.3 hPa | - | - | - | - |
| 1777799139 | 22.22° C | 29% | 1022.8 hPa | - | - | - | - |
| 1777777103 | 24.44° C | 33% | 1025.2 hPa | - | - | - | - |
| 1777776503 | 24.44° C | 33% | 1024.3 hPa | - | - | - | - |
| 1777774101 | 26.11° C | 32% | 1024.8 hPa | - | - | - | - |
| 1777773500 | 26.11° C | 32% | 1023.5 hPa | - | - | - | - |
| 1777772900 | 26.11° C | 32% | 1023.7 hPa | - | - | - | - |
| 1777772300 | 26.67° C | 32% | 1024.4 hPa | - | - | - | - |
| 1777771699 | 26.67° C | 32% | 1024.3 hPa | - | - | - | - |
| 1777771099 | 26.67° C | 32% | 1025.1 hPa | - | - | - | - |
| 1777770499 | 26.67° C | 31% | 1024.2 hPa | - | - | - | - |
| 1777769898 | 26.67° C | 31% | 1024 hPa | - | - | - | - |
| 1777769298 | 26.67° C | 31% | 1025.4 hPa | - | - | - | - |
| 1777768697 | 26.67° C | 31% | 1023.3 hPa | - | - | - | - |
| 1777768327 | 27.78° C | 29% | 1024.8 hPa | - | - | - | - |
| 1777768097 | 27.78° C | 29% | 1024.8 hPa | - | - | - | - |
| 1777746539 | 24.44° C | 32% | 1020.3 hPa | - | - | - | - |
| 1777745939 | 24.44° C | 32% | 1022.7 hPa | - | - | - | - |
| 1777744138 | 23.33° C | 32% | 1022.1 hPa | - | - | - | - |
* Rain since midnight (hover to see other rain measurements)
** Current wind speed in m/s (hover to see current wind gust speed)